createdAt,value
2023-04-09T00:00:17.949Z,10.00
2023-04-09T00:02:45.090Z,9.91
2023-04-09T00:05:12.259Z,10.01
2023-04-09T00:07:39.278Z,9.94
2023-04-09T00:10:07.510Z,9.93
2023-04-09T00:12:34.611Z,9.92
2023-04-09T00:15:01.651Z,9.90
2023-04-09T00:17:28.672Z,9.90
2023-04-09T00:19:56.221Z,9.90
2023-04-09T00:22:23.347Z,9.89
2023-04-09T00:24:50.421Z,9.86
2023-04-09T00:27:17.490Z,9.76
2023-04-09T00:29:44.571Z,9.78
2023-04-09T00:32:11.574Z,9.89
2023-04-09T00:34:38.904Z,9.90
2023-04-09T00:37:06.397Z,9.92
2023-04-09T00:39:33.453Z,9.87
2023-04-09T00:42:04.171Z,9.94
2023-04-09T00:44:31.296Z,9.87
2023-04-09T00:47:02.673Z,9.90
2023-04-09T00:49:29.906Z,9.85
2023-04-09T00:51:57.128Z,9.77
2023-04-09T00:54:24.109Z,9.90
2023-04-09T00:56:52.020Z,9.78
2023-04-09T00:59:19.690Z,9.79
2023-04-09T01:01:46.726Z,9.59
2023-04-09T01:04:13.904Z,9.64
2023-04-09T01:06:51.983Z,9.68
2023-04-09T01:09:35.501Z,9.69
2023-04-09T01:12:35.936Z,9.62
2023-04-09T01:15:08.714Z,9.55
2023-04-09T01:18:07.708Z,9.49
2023-04-09T01:20:48.071Z,9.51
2023-04-09T01:23:29.591Z,9.68
2023-04-09T01:26:15.018Z,9.51
2023-04-09T01:28:49.128Z,9.41
2023-04-09T01:31:20.279Z,9.52
2023-04-09T01:33:47.683Z,9.49
2023-04-09T01:36:15.466Z,9.52
2023-04-09T01:38:43.523Z,9.47
2023-04-09T01:41:17.290Z,9.59
2023-04-09T01:43:45.512Z,9.66
2023-04-09T01:46:13.783Z,9.64
2023-04-09T01:48:41.249Z,9.45
2023-04-09T01:51:08.290Z,9.53
2023-04-09T01:53:36.288Z,9.60
2023-04-09T01:56:03.759Z,9.58
2023-04-09T01:58:30.872Z,9.61
2023-04-09T02:01:14.584Z,9.57
2023-04-09T02:03:49.135Z,9.52
2023-04-09T02:06:43.046Z,9.54
2023-04-09T02:09:11.375Z,9.69
2023-04-09T02:11:41.740Z,9.68
2023-04-09T02:14:11.377Z,9.60
2023-04-09T02:16:39.995Z,9.54
2023-04-09T02:19:07.005Z,9.55
2023-04-09T02:21:34.378Z,9.73
2023-04-09T02:24:01.366Z,9.64
2023-04-09T02:26:28.430Z,9.74
2023-04-09T02:28:55.463Z,9.70
2023-04-09T02:31:22.451Z,9.70
2023-04-09T02:33:49.490Z,9.53
2023-04-09T02:36:16.595Z,9.51
2023-04-09T02:38:43.753Z,9.45
2023-04-09T02:41:10.897Z,9.45
2023-04-09T02:43:38.032Z,9.45
2023-04-09T02:46:05.358Z,9.42
2023-04-09T02:48:32.760Z,9.47
2023-04-09T02:50:59.777Z,9.43
2023-04-09T02:53:27.076Z,9.44
2023-04-09T02:55:54.116Z,9.46
2023-04-09T02:58:21.141Z,9.52
2023-04-09T03:00:48.160Z,9.58
2023-04-09T03:03:15.539Z,9.44
2023-04-09T03:05:42.705Z,9.53
2023-04-09T03:08:09.720Z,9.50
2023-04-09T03:10:36.754Z,9.61
2023-04-09T03:13:03.752Z,9.44
2023-04-09T03:15:30.770Z,9.47
2023-04-09T03:17:57.784Z,9.59
2023-04-09T03:20:24.884Z,9.67
2023-04-09T03:22:51.866Z,9.48
2023-04-09T03:25:20.675Z,9.38
2023-04-09T03:27:47.813Z,9.32
2023-04-09T03:30:14.794Z,9.32
2023-04-09T03:32:41.875Z,9.34
2023-04-09T03:35:09.212Z,9.27
2023-04-09T03:37:36.235Z,9.35
2023-04-09T03:40:04.007Z,9.20
2023-04-09T03:42:31.457Z,9.10
2023-04-09T03:44:58.461Z,9.15
2023-04-09T03:47:25.610Z,9.05
2023-04-09T03:49:52.722Z,8.97
2023-04-09T03:52:19.774Z,8.93
2023-04-09T03:54:46.787Z,8.87
2023-04-09T03:57:13.826Z,8.87
2023-04-09T03:59:40.804Z,8.91
2023-04-09T04:02:07.838Z,8.99
2023-04-09T04:04:34.979Z,8.96
2023-04-09T04:07:03.989Z,9.02
2023-04-09T04:09:31.077Z,8.95
2023-04-09T04:11:58.953Z,9.02
2023-04-09T04:14:26.010Z,9.12
2023-04-09T04:16:52.995Z,8.97
2023-04-09T04:19:19.959Z,8.96
2023-04-09T04:21:47.084Z,8.93
2023-04-09T04:24:14.038Z,9.02
2023-04-09T04:26:41.063Z,9.33
2023-04-09T04:29:08.140Z,9.57
2023-04-09T04:31:35.201Z,9.22
2023-04-09T04:34:02.241Z,9.20
2023-04-09T04:36:29.327Z,9.14
2023-04-09T04:38:56.282Z,9.28
2023-04-09T04:41:23.395Z,9.39
2023-04-09T04:43:50.408Z,9.25
2023-04-09T04:46:17.495Z,9.31
2023-04-09T04:48:44.579Z,9.44
2023-04-09T04:51:11.567Z,9.42
2023-04-09T04:53:38.654Z,9.44
2023-04-09T04:56:05.962Z,9.36
2023-04-09T04:58:32.924Z,9.35
2023-04-09T05:01:00.686Z,9.36
2023-04-09T05:03:27.836Z,9.46
2023-04-09T05:05:55.023Z,9.49
2023-04-09T05:08:22.043Z,9.51
2023-04-09T05:10:49.070Z,9.61
2023-04-09T05:13:16.054Z,9.69
2023-04-09T05:15:43.167Z,9.74
2023-04-09T05:18:10.444Z,9.85
2023-04-09T05:20:37.450Z,10.00
2023-04-09T05:23:04.566Z,10.13
2023-04-09T05:25:31.689Z,10.22
2023-04-09T05:27:58.660Z,10.47
2023-04-09T05:30:25.943Z,10.88
2023-04-09T05:32:52.972Z,11.38
2023-04-09T05:35:20.466Z,11.83
2023-04-09T05:37:47.474Z,12.10
2023-04-09T05:40:15.008Z,12.58
2023-04-09T05:42:42.085Z,12.70
2023-04-09T05:45:09.988Z,12.97
2023-04-09T05:47:37.141Z,12.65
2023-04-09T05:50:04.670Z,12.92
2023-04-09T05:52:32.195Z,12.31
2023-04-09T05:54:59.266Z,12.56
2023-04-09T05:57:26.286Z,12.72
2023-04-09T05:59:53.476Z,12.95
2023-04-09T06:02:20.667Z,12.77
2023-04-09T06:04:47.929Z,12.82
2023-04-09T06:07:15.010Z,13.02
2023-04-09T06:09:44.198Z,13.09
2023-04-09T06:12:11.408Z,13.25
2023-04-09T06:14:38.405Z,13.70
2023-04-09T06:17:05.602Z,13.91
2023-04-09T06:19:32.618Z,13.83
2023-04-09T06:21:59.756Z,13.80
2023-04-09T06:24:27.182Z,14.06
2023-04-09T06:26:54.174Z,13.97
2023-04-09T06:29:23.164Z,14.03
2023-04-09T06:31:51.503Z,14.51
2023-04-09T06:34:18.498Z,14.75
2023-04-09T06:36:45.949Z,14.61
2023-04-09T06:39:12.944Z,14.06
2023-04-09T06:41:39.952Z,13.95
2023-04-09T06:44:07.140Z,14.26
2023-04-09T06:46:34.194Z,14.37
2023-04-09T06:49:01.178Z,14.44
2023-04-09T06:51:28.305Z,14.30
2023-04-09T06:53:55.570Z,14.52
2023-04-09T06:56:22.836Z,14.42
2023-04-09T06:58:49.836Z,14.66
2023-04-09T07:01:17.514Z,15.06
2023-04-09T07:03:44.931Z,14.97
2023-04-09T07:06:12.139Z,14.48
2023-04-09T07:08:39.182Z,14.54
2023-04-09T07:11:06.256Z,15.10
2023-04-09T07:13:33.500Z,14.88
2023-04-09T07:16:00.794Z,14.93
2023-04-09T07:18:27.903Z,15.27
2023-04-09T07:20:55.311Z,15.55
2023-04-09T07:23:22.944Z,15.60
2023-04-09T07:25:50.024Z,15.79
2023-04-09T07:28:17.048Z,15.98
2023-04-09T07:30:44.108Z,16.12
2023-04-09T07:33:11.357Z,16.46
2023-04-09T07:35:38.434Z,16.46
2023-04-09T07:38:05.410Z,16.31
2023-04-09T07:40:34.636Z,15.95
2023-04-09T07:43:01.678Z,16.27
2023-04-09T07:45:28.744Z,16.39
2023-04-09T07:47:56.030Z,16.49
2023-04-09T07:50:23.111Z,16.36
2023-04-09T07:52:50.095Z,16.85
2023-04-09T07:55:18.525Z,16.73
2023-04-09T07:57:45.913Z,16.92
2023-04-09T08:00:13.517Z,17.39
2023-04-09T08:02:40.908Z,17.57
2023-04-09T08:05:08.764Z,17.91
2023-04-09T08:07:36.896Z,17.86
2023-04-09T08:10:04.873Z,18.07
2023-04-09T08:12:31.932Z,18.01
2023-04-09T08:14:58.953Z,17.88
2023-04-09T08:17:25.930Z,18.06
2023-04-09T08:19:53.090Z,18.77
2023-04-09T08:22:20.093Z,18.58
2023-04-09T08:24:52.944Z,18.71
2023-04-09T08:27:20.422Z,19.31
2023-04-09T08:29:47.636Z,19.33
2023-04-09T08:32:14.887Z,19.10
2023-04-09T08:34:42.110Z,18.78
2023-04-09T08:37:09.117Z,18.70
2023-04-09T08:39:36.755Z,18.16
2023-04-09T08:42:07.232Z,17.42
2023-04-09T08:44:34.397Z,16.80
2023-04-09T08:47:02.687Z,16.57
2023-04-09T08:49:29.718Z,16.62
2023-04-09T08:51:57.084Z,16.17
2023-04-09T08:54:26.763Z,16.25
2023-04-09T08:56:53.848Z,16.43
2023-04-09T08:59:21.213Z,16.21
2023-04-09T09:01:54.200Z,16.19
2023-04-09T09:04:21.659Z,15.89
2023-04-09T09:06:48.702Z,16.35
2023-04-09T09:09:17.626Z,15.65
2023-04-09T09:11:51.025Z,15.77
2023-04-09T09:14:19.886Z,15.64
2023-04-09T09:16:56.185Z,15.77
2023-04-09T09:19:26.646Z,16.00
2023-04-09T09:22:04.910Z,16.07
2023-04-09T09:24:33.981Z,15.74
2023-04-09T09:27:02.546Z,15.78
2023-04-09T09:29:29.814Z,15.64
2023-04-09T09:31:57.012Z,15.71
2023-04-09T09:34:25.430Z,15.81
2023-04-09T09:36:52.740Z,16.22
2023-04-09T09:39:20.139Z,15.93
2023-04-09T09:41:48.868Z,15.71
2023-04-09T09:44:33.197Z,15.57
2023-04-09T09:47:03.548Z,15.95
2023-04-09T09:49:30.789Z,16.48
2023-04-09T09:52:02.985Z,16.95
2023-04-09T09:54:39.953Z,16.93
2023-04-09T09:57:10.752Z,17.48
2023-04-09T09:59:40.640Z,17.95
2023-04-09T10:02:20.026Z,18.18
2023-04-09T10:04:53.794Z,17.87
2023-04-09T10:07:22.383Z,18.36
2023-04-09T10:09:56.705Z,17.51
2023-04-09T10:12:25.064Z,17.55
2023-04-09T10:14:53.157Z,17.27
2023-04-09T10:17:21.781Z,17.42
2023-04-09T10:20:12.909Z,17.09
2023-04-09T10:22:43.505Z,16.82
2023-04-09T10:25:10.850Z,16.97
2023-04-09T10:27:37.816Z,16.53
2023-04-09T10:30:10.338Z,16.35
2023-04-09T10:32:37.462Z,16.64
2023-04-09T10:35:05.158Z,16.68
2023-04-09T10:37:32.301Z,17.00
2023-04-09T10:39:59.348Z,17.35
2023-04-09T10:42:42.089Z,17.52
2023-04-09T10:45:11.561Z,17.67
2023-04-09T10:47:41.554Z,17.63
2023-04-09T10:50:25.796Z,17.93
2023-04-09T10:52:56.427Z,17.80
2023-04-09T10:55:39.947Z,18.05
2023-04-09T10:58:13.596Z,18.22
2023-04-09T11:00:44.058Z,18.39
2023-04-09T11:03:24.039Z,18.41
2023-04-09T11:05:56.852Z,18.20
2023-04-09T11:08:23.995Z,18.39
2023-04-09T11:10:53.393Z,17.77
2023-04-09T11:13:21.899Z,17.87
2023-04-09T11:15:49.083Z,17.52
2023-04-09T11:18:30.914Z,17.94
2023-04-09T11:21:03.844Z,18.06
2023-04-09T11:23:32.924Z,17.89
2023-04-09T11:26:00.139Z,17.56
2023-04-09T11:28:27.429Z,17.71
2023-04-09T11:30:54.420Z,17.86
2023-04-09T11:33:21.613Z,18.33
2023-04-09T11:35:49.154Z,18.41
2023-04-09T11:38:16.237Z,18.63
2023-04-09T11:40:51.516Z,18.25
2023-04-09T11:43:20.862Z,17.72
2023-04-09T11:45:48.704Z,17.99
2023-04-09T11:48:18.489Z,18.14
2023-04-09T11:50:47.486Z,18.13
2023-04-09T11:53:22.829Z,18.12
2023-04-09T11:55:54.276Z,18.18
2023-04-09T11:58:26.648Z,18.86
2023-04-09T12:01:03.920Z,18.86
2023-04-09T12:03:33.152Z,18.67
2023-04-09T12:06:02.825Z,17.54
2023-04-09T12:08:31.317Z,17.98
2023-04-09T12:11:12.149Z,18.26
2023-04-09T12:13:45.656Z,18.23
2023-04-09T12:16:13.829Z,18.20
2023-04-09T12:18:41.259Z,18.44
2023-04-09T12:21:08.385Z,18.56
2023-04-09T12:23:35.630Z,18.09
2023-04-09T12:26:02.684Z,18.20
2023-04-09T12:28:29.880Z,18.38
2023-04-09T12:30:58.305Z,18.10
2023-04-09T12:33:25.382Z,18.65
2023-04-09T12:35:52.366Z,18.61
2023-04-09T12:38:19.384Z,19.14
2023-04-09T12:40:46.731Z,19.32
2023-04-09T12:43:13.693Z,19.46
2023-04-09T12:45:40.714Z,19.53
2023-04-09T12:48:07.792Z,19.70
2023-04-09T12:50:34.855Z,19.73
2023-04-09T12:53:01.856Z,19.46
2023-04-09T12:55:29.003Z,19.34
2023-04-09T12:57:56.140Z,19.54
2023-04-09T13:00:23.285Z,19.07
2023-04-09T13:02:52.741Z,18.93
2023-04-09T13:05:19.993Z,18.53
2023-04-09T13:07:46.981Z,18.54
2023-04-09T13:10:13.984Z,18.04
2023-04-09T13:12:41.218Z,17.93
2023-04-09T13:15:08.446Z,17.83
2023-04-09T13:17:35.648Z,17.53
2023-04-09T13:20:03.772Z,17.76
2023-04-09T13:22:31.024Z,17.41
2023-04-09T13:24:58.035Z,17.35
2023-04-09T13:27:25.116Z,17.21
2023-04-09T13:29:52.124Z,17.15
2023-04-09T13:32:21.108Z,16.65
2023-04-09T13:34:48.200Z,16.17
2023-04-09T13:37:15.782Z,15.38
2023-04-09T13:39:44.300Z,14.82
2023-04-09T13:42:14.051Z,14.78
2023-04-09T13:44:44.620Z,14.61
2023-04-09T13:47:13.585Z,14.94
2023-04-09T13:49:41.402Z,15.27
2023-04-09T13:52:09.514Z,14.99
2023-04-09T13:54:37.289Z,14.65
2023-04-09T13:57:04.552Z,14.60
2023-04-09T13:59:31.536Z,14.79
2023-04-09T14:01:58.742Z,14.71
2023-04-09T14:04:26.081Z,15.00
2023-04-09T14:06:53.151Z,14.70
2023-04-09T14:09:20.325Z,14.72
2023-04-09T14:11:47.341Z,14.52
2023-04-09T14:14:14.332Z,14.32
2023-04-09T14:16:41.470Z,14.20
2023-04-09T14:19:10.106Z,14.21
2023-04-09T14:21:37.280Z,14.18
2023-04-09T14:24:04.399Z,14.15
2023-04-09T14:26:31.634Z,14.32
2023-04-09T14:28:58.593Z,14.19
2023-04-09T14:31:25.569Z,13.67
2023-04-09T14:33:52.624Z,13.79
2023-04-09T14:36:19.590Z,13.74
2023-04-09T14:38:48.480Z,13.90
2023-04-09T14:41:16.519Z,14.14
2023-04-09T14:43:43.520Z,13.92
2023-04-09T14:46:12.203Z,14.06
2023-04-09T14:48:40.015Z,14.13
2023-04-09T14:51:11.088Z,14.17
2023-04-09T14:53:38.608Z,14.21
2023-04-09T14:56:06.658Z,14.11
2023-04-09T14:58:33.730Z,14.10
2023-04-09T15:01:00.802Z,14.23
2023-04-09T15:03:28.160Z,14.47
2023-04-09T15:05:55.553Z,14.31
2023-04-09T15:08:23.660Z,14.25
2023-04-09T15:10:51.263Z,14.25
2023-04-09T15:13:18.399Z,14.20
2023-04-09T15:15:45.515Z,14.11
2023-04-09T15:18:12.594Z,14.19
2023-04-09T15:20:40.502Z,14.25
2023-04-09T15:23:07.547Z,14.22
2023-04-09T15:25:34.561Z,14.25
2023-04-09T15:28:03.236Z,14.18
2023-04-09T15:30:30.695Z,14.12
2023-04-09T15:32:58.145Z,14.19
2023-04-09T15:35:29.103Z,14.22
2023-04-09T15:37:57.088Z,14.19
2023-04-09T15:40:24.224Z,14.24
2023-04-09T15:42:51.324Z,14.12
2023-04-09T15:45:18.447Z,14.19
2023-04-09T15:47:46.211Z,14.17
2023-04-09T15:50:14.154Z,14.34
2023-04-09T15:52:41.232Z,14.11
2023-04-09T15:55:09.160Z,14.14
2023-04-09T15:57:36.505Z,14.03
2023-04-09T16:00:03.904Z,14.12
2023-04-09T16:02:30.981Z,14.20
2023-04-09T16:04:58.081Z,14.19
2023-04-09T16:07:25.178Z,14.23
2023-04-09T16:09:52.322Z,14.21
2023-04-09T16:12:19.268Z,14.30
2023-04-09T16:14:46.339Z,14.34
2023-04-09T16:17:13.296Z,14.37
2023-04-09T16:19:40.330Z,14.52
2023-04-09T16:22:07.507Z,14.42
2023-04-09T16:24:34.576Z,14.34
2023-04-09T16:27:01.625Z,14.63
2023-04-09T16:29:28.634Z,14.39
2023-04-09T16:31:57.557Z,14.34
2023-04-09T16:34:25.004Z,14.39
2023-04-09T16:36:52.021Z,14.33
2023-04-09T16:39:19.921Z,14.38
2023-04-09T16:41:47.017Z,14.30
2023-04-09T16:44:14.027Z,14.23
2023-04-09T16:46:41.054Z,14.25
2023-04-09T16:49:08.137Z,14.29
2023-04-09T16:51:35.270Z,14.14
2023-04-09T16:54:02.344Z,14.08
2023-04-09T16:56:29.336Z,14.04
2023-04-09T16:58:56.340Z,14.04
2023-04-09T17:01:23.435Z,14.03
2023-04-09T17:03:50.729Z,14.02
2023-04-09T17:06:18.088Z,13.83
2023-04-09T17:08:45.876Z,13.87
2023-04-09T17:11:17.212Z,13.82
2023-04-09T17:13:44.272Z,13.84
2023-04-09T17:16:11.921Z,13.76
2023-04-09T17:18:39.274Z,13.74
2023-04-09T17:21:07.054Z,13.74
2023-04-09T17:23:34.149Z,13.67
2023-04-09T17:26:02.293Z,13.65
2023-04-09T17:28:29.510Z,13.61
2023-04-09T17:30:56.587Z,13.65
2023-04-09T17:33:23.646Z,13.45
2023-04-09T17:35:50.903Z,13.40
2023-04-09T17:38:21.289Z,13.36
2023-04-09T17:40:48.842Z,13.35
2023-04-09T17:43:15.870Z,13.50
2023-04-09T17:45:43.288Z,13.29
2023-04-09T17:48:10.859Z,13.26
2023-04-09T17:50:39.111Z,13.26
2023-04-09T17:53:06.238Z,13.24
2023-04-09T17:55:33.249Z,13.31
2023-04-09T17:58:00.382Z,13.28
2023-04-09T18:00:27.583Z,13.31
2023-04-09T18:02:54.927Z,13.37
2023-04-09T18:05:23.038Z,13.41
2023-04-09T18:07:50.831Z,13.17
2023-04-09T18:10:18.670Z,12.98
2023-04-09T18:12:45.845Z,13.02
2023-04-09T18:15:12.874Z,12.97
2023-04-09T18:17:39.897Z,12.93
2023-04-09T18:20:07.591Z,13.13
2023-04-09T18:22:35.194Z,13.07
2023-04-09T18:25:02.449Z,12.86
2023-04-09T18:27:29.468Z,12.68
2023-04-09T18:29:56.533Z,12.48
2023-04-09T18:32:23.768Z,12.58
2023-04-09T18:34:52.135Z,12.36
2023-04-09T18:37:20.772Z,12.38
2023-04-09T18:39:47.999Z,12.36
2023-04-09T18:42:15.012Z,12.29
2023-04-09T18:44:42.456Z,12.17
2023-04-09T18:47:11.141Z,12.08
2023-04-09T18:49:38.192Z,12.04
2023-04-09T18:52:09.340Z,12.06
2023-04-09T18:54:37.288Z,12.08
2023-04-09T18:57:04.561Z,11.84
2023-04-09T18:59:34.750Z,11.92
2023-04-09T19:02:05.866Z,11.86
2023-04-09T19:04:39.990Z,11.77
2023-04-09T19:07:07.542Z,11.82
2023-04-09T19:09:37.148Z,11.85
2023-04-09T19:12:04.839Z,11.83
2023-04-09T19:14:31.811Z,11.75
2023-04-09T19:16:59.706Z,11.86
2023-04-09T19:19:27.485Z,11.89
2023-04-09T19:21:54.660Z,11.87
2023-04-09T19:24:21.674Z,11.80
2023-04-09T19:26:50.858Z,11.88
2023-04-09T19:29:17.838Z,12.03
2023-04-09T19:31:46.035Z,11.72
2023-04-09T19:34:13.490Z,11.75
2023-04-09T19:36:40.796Z,11.77
2023-04-09T19:39:08.543Z,11.71
2023-04-09T19:41:35.835Z,11.86
2023-04-09T19:44:03.358Z,11.80
2023-04-09T19:46:30.563Z,11.84
2023-04-09T19:48:57.686Z,11.89
2023-04-09T19:51:24.631Z,11.98
2023-04-09T19:53:51.789Z,12.02
2023-04-09T19:56:19.009Z,11.87
2023-04-09T19:58:46.051Z,11.93
2023-04-09T20:01:13.247Z,12.14
2023-04-09T20:03:40.783Z,12.02
2023-04-09T20:06:09.998Z,11.81
2023-04-09T20:08:38.080Z,11.92
2023-04-09T20:11:05.919Z,12.06
2023-04-09T20:13:33.384Z,11.87
2023-04-09T20:16:01.612Z,11.80
2023-04-09T20:18:28.842Z,11.89
2023-04-09T20:20:56.504Z,11.75
2023-04-09T20:23:23.497Z,11.84
2023-04-09T20:25:56.838Z,11.65
2023-04-09T20:28:24.008Z,11.80
2023-04-09T20:30:51.230Z,11.73
2023-04-09T20:33:18.706Z,11.68
2023-04-09T20:35:45.937Z,11.86
2023-04-09T20:38:13.154Z,11.86
2023-04-09T20:40:40.512Z,11.78
2023-04-09T20:43:07.516Z,11.91
2023-04-09T20:45:34.648Z,11.89
2023-04-09T20:48:02.428Z,11.73
2023-04-09T20:50:31.111Z,11.71
2023-04-09T20:52:58.990Z,11.61
2023-04-09T20:55:26.594Z,11.74
2023-04-09T20:57:56.670Z,11.61
2023-04-09T21:00:24.246Z,11.78
2023-04-09T21:02:51.613Z,11.64
2023-04-09T21:05:23.557Z,11.54
2023-04-09T21:07:52.494Z,11.53
2023-04-09T21:10:20.044Z,11.56
2023-04-09T21:12:47.099Z,11.37
2023-04-09T21:15:14.229Z,11.39
2023-04-09T21:17:41.546Z,11.46
2023-04-09T21:20:09.331Z,11.31
2023-04-09T21:22:36.369Z,11.29
2023-04-09T21:25:03.706Z,11.32
2023-04-09T21:27:31.271Z,11.33
2023-04-09T21:29:58.811Z,11.25
2023-04-09T21:32:25.882Z,11.22
2023-04-09T21:34:53.812Z,11.08
2023-04-09T21:37:20.818Z,11.06
2023-04-09T21:39:48.902Z,10.92
2023-04-09T21:42:15.997Z,10.95
2023-04-09T21:44:42.998Z,10.82
2023-04-09T21:47:12.205Z,10.83
2023-04-09T21:49:40.562Z,10.75
2023-04-09T21:52:14.473Z,10.76
2023-04-09T21:54:43.328Z,10.68
2023-04-09T21:57:11.400Z,10.64
2023-04-09T21:59:38.687Z,10.63
2023-04-09T22:02:06.063Z,10.53
2023-04-09T22:04:35.229Z,10.43
2023-04-09T22:07:03.369Z,10.38
2023-04-09T22:09:31.610Z,10.40
2023-04-09T22:11:59.732Z,10.28
2023-04-09T22:14:29.534Z,10.29
2023-04-09T22:16:58.344Z,10.32
2023-04-09T22:19:26.354Z,10.31
2023-04-09T22:21:53.815Z,10.26
2023-04-09T22:24:27.022Z,10.34
2023-04-09T22:26:54.248Z,10.26
2023-04-09T22:29:21.383Z,10.25
2023-04-09T22:31:48.398Z,10.24
2023-04-09T22:34:21.531Z,10.26
2023-04-09T22:36:49.250Z,10.22
2023-04-09T22:39:16.662Z,10.25
2023-04-09T22:41:43.970Z,10.23
2023-04-09T22:44:10.999Z,10.18
2023-04-09T22:46:38.175Z,10.13
2023-04-09T22:49:06.361Z,10.14
2023-04-09T22:51:34.674Z,9.97
2023-04-09T22:54:02.284Z,9.90
2023-04-09T22:56:31.825Z,10.11
2023-04-09T22:58:59.209Z,10.01
2023-04-09T23:01:27.194Z,10.07
2023-04-09T23:03:54.640Z,9.98
2023-04-09T23:06:22.647Z,9.90
2023-04-09T23:08:50.628Z,9.86
2023-04-09T23:11:17.893Z,9.84
2023-04-09T23:13:44.966Z,9.77
2023-04-09T23:16:12.005Z,9.89
2023-04-09T23:18:39.349Z,9.83
2023-04-09T23:21:08.014Z,9.75
2023-04-09T23:23:36.366Z,9.69
2023-04-09T23:26:04.362Z,9.60
2023-04-09T23:28:31.608Z,9.66
2023-04-09T23:30:58.588Z,9.57
2023-04-09T23:33:25.579Z,9.50
2023-04-09T23:35:52.647Z,9.54
2023-04-09T23:38:19.903Z,9.56
2023-04-09T23:40:48.547Z,9.60
2023-04-09T23:43:15.629Z,9.52
2023-04-09T23:45:44.027Z,9.39
2023-04-09T23:48:12.476Z,9.36
2023-04-09T23:50:41.506Z,9.24
2023-04-09T23:53:09.050Z,9.28
2023-04-09T23:55:41.178Z,9.20
2023-04-09T23:58:09.595Z,9.23
